sensor_id;sensor_type;location;lat;lon;timestamp;pressure;altitude;pressure_sealevel;temperature;humidity
12195;BME280;27023;42.680;23.132;2022-08-14T00:00:40;91679.94;;;15.89;100.00
12195;BME280;27023;42.680;23.132;2022-08-14T00:03:07;91673.88;;;15.89;100.00
12195;BME280;27023;42.680;23.132;2022-08-14T00:05:34;91673.94;;;15.78;100.00
12195;BME280;27023;42.680;23.132;2022-08-14T00:08:00;91674.69;;;15.79;100.00
12195;BME280;27023;42.680;23.132;2022-08-14T00:10:28;91672.47;;;15.67;100.00
12195;BME280;27023;42.680;23.132;2022-08-14T00:12:55;91674.00;;;15.61;100.00
12195;BME280;27023;42.680;23.132;2022-08-14T00:15:26;91671.72;;;15.63;100.00
12195;BME280;27023;42.680;23.132;2022-08-14T00:17:53;91670.94;;;15.58;100.00
12195;BME280;27023;42.680;23.132;2022-08-14T00:20:22;91663.34;;;15.53;100.00
12195;BME280;27023;42.680;23.132;2022-08-14T00:22:50;91666.41;;;15.52;100.00
12195;BME280;27023;42.680;23.132;2022-08-14T00:25:17;91660.72;;;15.50;100.00
12195;BME280;27023;42.680;23.132;2022-08-14T00:27:45;91661.84;;;15.52;100.00
12195;BME280;27023;42.680;23.132;2022-08-14T00:30:14;91658.81;;;15.61;100.00
12195;BME280;27023;42.680;23.132;2022-08-14T00:32:41;91660.31;;;15.58;100.00
12195;BME280;27023;42.680;23.132;2022-08-14T00:35:09;91657.28;;;15.56;100.00
12195;BME280;27023;42.680;23.132;2022-08-14T00:37:37;91664.88;;;15.58;100.00
12195;BME280;27023;42.680;23.132;2022-08-14T00:40:05;91653.09;;;15.70;100.00
12195;BME280;27023;42.680;23.132;2022-08-14T00:42:33;91657.91;;;15.93;100.00
12195;BME280;27023;42.680;23.132;2022-08-14T00:45:01;91651.78;;;15.99;100.00
12195;BME280;27023;42.680;23.132;2022-08-14T00:47:28;91657.94;;;15.89;100.00
12195;BME280;27023;42.680;23.132;2022-08-14T00:49:55;91652.66;;;15.82;100.00
12195;BME280;27023;42.680;23.132;2022-08-14T00:52:22;91657.22;;;15.81;100.00
12195;BME280;27023;42.680;23.132;2022-08-14T00:54:51;91650.19;;;16.12;100.00
12195;BME280;27023;42.680;23.132;2022-08-14T00:57:19;91650.13;;;16.23;100.00
12195;BME280;27023;42.680;23.132;2022-08-14T00:59:46;91643.84;;;15.96;100.00
12195;BME280;27023;42.680;23.132;2022-08-14T01:02:16;91644.28;;;15.83;100.00
12195;BME280;27023;42.680;23.132;2022-08-14T01:04:44;91641.63;;;15.83;100.00
12195;BME280;27023;42.680;23.132;2022-08-14T01:07:12;91644.75;;;15.68;100.00
12195;BME280;27023;42.680;23.132;2022-08-14T01:09:46;91640.97;;;15.58;100.00
12195;BME280;27023;42.680;23.132;2022-08-14T01:12:15;91632.63;;;15.49;100.00
12195;BME280;27023;42.680;23.132;2022-08-14T01:14:42;91627.34;;;15.49;100.00
12195;BME280;27023;42.680;23.132;2022-08-14T01:17:09;91634.53;;;15.63;100.00
12195;BME280;27023;42.680;23.132;2022-08-14T01:19:37;91632.25;;;15.54;100.00
12195;BME280;27023;42.680;23.132;2022-08-14T01:22:23;91630.75;;;15.49;100.00
12195;BME280;27023;42.680;23.132;2022-08-14T01:24:50;91624.28;;;15.50;100.00
12195;BME280;27023;42.680;23.132;2022-08-14T01:27:19;91622.41;;;15.47;100.00
12195;BME280;27023;42.680;23.132;2022-08-14T01:29:50;91609.88;;;15.51;100.00
12195;BME280;27023;42.680;23.132;2022-08-14T01:32:18;91613.28;;;15.48;100.00
12195;BME280;27023;42.680;23.132;2022-08-14T01:34:47;91609.53;;;15.39;100.00
12195;BME280;27023;42.680;23.132;2022-08-14T01:37:13;91613.75;;;15.33;100.00
12195;BME280;27023;42.680;23.132;2022-08-14T01:39:41;91615.66;;;15.25;100.00
12195;BME280;27023;42.680;23.132;2022-08-14T01:42:08;91614.94;;;15.21;100.00
12195;BME280;27023;42.680;23.132;2022-08-14T01:44:36;91617.97;;;15.16;100.00
12195;BME280;27023;42.680;23.132;2022-08-14T01:47:06;91617.22;;;15.15;100.00
12195;BME280;27023;42.680;23.132;2022-08-14T01:49:36;91623.28;;;15.16;100.00
12195;BME280;27023;42.680;23.132;2022-08-14T01:52:03;91616.88;;;15.10;100.00
12195;BME280;27023;42.680;23.132;2022-08-14T01:54:30;91610.44;;;15.04;100.00
12195;BME280;27023;42.680;23.132;2022-08-14T01:56:58;91612.72;;;14.98;100.00
12195;BME280;27023;42.680;23.132;2022-08-14T01:59:27;91601.31;;;15.08;100.00
12195;BME280;27023;42.680;23.132;2022-08-14T02:01:58;91605.09;;;15.11;100.00
12195;BME280;27023;42.680;23.132;2022-08-14T02:04:28;91602.84;;;15.06;100.00
12195;BME280;27023;42.680;23.132;2022-08-14T02:06:55;91610.44;;;15.04;100.00
12195;BME280;27023;42.680;23.132;2022-08-14T02:09:22;91603.22;;;15.08;100.00
12195;BME280;27023;42.680;23.132;2022-08-14T02:11:50;91611.94;;;15.12;100.00
12195;BME280;27023;42.680;23.132;2022-08-14T02:14:18;91616.09;;;15.13;100.00
12195;BME280;27023;42.680;23.132;2022-08-14T02:16:47;91607.31;;;15.26;100.00
12195;BME280;27023;42.680;23.132;2022-08-14T02:19:19;91608.50;;;15.18;100.00
12195;BME280;27023;42.680;23.132;2022-08-14T02:21:49;91604.72;;;15.12;100.00
12195;BME280;27023;42.680;23.132;2022-08-14T02:24:17;91614.59;;;15.12;100.00
12195;BME280;27023;42.680;23.132;2022-08-14T02:26:45;91611.09;;;15.29;100.00
12195;BME280;27023;42.680;23.132;2022-08-14T02:29:16;91611.81;;;15.37;100.00
12195;BME280;27023;42.680;23.132;2022-08-14T02:31:46;91610.78;;;15.09;100.00
12195;BME280;27023;42.680;23.132;2022-08-14T02:34:16;91611.97;;;14.98;100.00
12195;BME280;27023;42.680;23.132;2022-08-14T02:36:46;91617.28;;;14.98;100.00
12195;BME280;27023;42.680;23.132;2022-08-14T02:39:14;91619.91;;;15.05;100.00
12195;BME280;27023;42.680;23.132;2022-08-14T02:41:41;91616.53;;;14.97;100.00
12195;BME280;27023;42.680;23.132;2022-08-14T02:44:10;91620.34;;;14.89;100.00
12195;BME280;27023;42.680;23.132;2022-08-14T02:46:39;91618.44;;;14.89;100.00
12195;BME280;27023;42.680;23.132;2022-08-14T02:49:10;91621.09;;;14.89;100.00
12195;BME280;27023;42.680;23.132;2022-08-14T02:51:37;91615.72;;;15.07;100.00
12195;BME280;27023;42.680;23.132;2022-08-14T02:54:06;91614.53;;;15.22;100.00
12195;BME280;27023;42.680;23.132;2022-08-14T02:56:34;91611.19;;;15.04;100.00
12195;BME280;27023;42.680;23.132;2022-08-14T02:59:04;91609.34;;;14.90;100.00
12195;BME280;27023;42.680;23.132;2022-08-14T03:01:31;91602.91;;;14.88;100.00
12195;BME280;27023;42.680;23.132;2022-08-14T03:03:58;91616.91;;;14.81;100.00
12195;BME280;27023;42.680;23.132;2022-08-14T03:06:26;91607.81;;;14.79;100.00
12195;BME280;27023;42.680;23.132;2022-08-14T03:08:53;91599.81;;;15.04;100.00
12195;BME280;27023;42.680;23.132;2022-08-14T03:11:21;91594.50;;;15.11;100.00
12195;BME280;27023;42.680;23.132;2022-08-14T03:13:49;91599.78;;;15.11;100.00
12195;BME280;27023;42.680;23.132;2022-08-14T03:16:19;91605.81;;;15.22;100.00
12195;BME280;27023;42.680;23.132;2022-08-14T03:18:49;91607.25;;;15.41;100.00
12195;BME280;27023;42.680;23.132;2022-08-14T03:21:19;91598.50;;;15.51;100.00
12195;BME280;27023;42.680;23.132;2022-08-14T03:23:52;91604.56;;;15.62;100.00
12195;BME280;27023;42.680;23.132;2022-08-14T03:26:26;91606.44;;;15.58;100.00
12195;BME280;27023;42.680;23.132;2022-08-14T03:28:54;91609.47;;;15.64;100.00
12195;BME280;27023;42.680;23.132;2022-08-14T03:31:20;91620.81;;;15.75;100.00
12195;BME280;27023;42.680;23.132;2022-08-14T03:33:49;91628.03;;;15.74;100.00
12195;BME280;27023;42.680;23.132;2022-08-14T03:36:18;91622.97;;;15.94;100.00
12195;BME280;27023;42.680;23.132;2022-08-14T03:38:50;91618.66;;;16.14;100.00
12195;BME280;27023;42.680;23.132;2022-08-14T03:41:22;91621.69;;;16.16;100.00
12195;BME280;27023;42.680;23.132;2022-08-14T03:43:51;91625.00;;;16.28;100.00
12195;BME280;27023;42.680;23.132;2022-08-14T03:46:19;91619.72;;;16.24;100.00
12195;BME280;27023;42.680;23.132;2022-08-14T03:48:47;91626.34;;;15.98;100.00
12195;BME280;27023;42.680;23.132;2022-08-14T03:51:13;91617.69;;;15.87;100.00
12195;BME280;27023;42.680;23.132;2022-08-14T03:53:43;91627.50;;;15.97;100.00
12195;BME280;27023;42.680;23.132;2022-08-14T03:56:14;91631.94;;;16.14;100.00
12195;BME280;27023;42.680;23.132;2022-08-14T03:58:43;91626.81;;;15.86;100.00
12195;BME280;27023;42.680;23.132;2022-08-14T04:01:11;91622.31;;;15.76;100.00
12195;BME280;27023;42.680;23.132;2022-08-14T04:03:37;91618.56;;;15.70;100.00
12195;BME280;27023;42.680;23.132;2022-08-14T04:06:05;91624.66;;;15.67;100.00
12195;BME280;27023;42.680;23.132;2022-08-14T04:08:34;91618.94;;;15.72;100.00
12195;BME280;27023;42.680;23.132;2022-08-14T04:11:02;91621.56;;;15.75;100.00
12195;BME280;27023;42.680;23.132;2022-08-14T04:13:31;91635.94;;;15.81;100.00
12195;BME280;27023;42.680;23.132;2022-08-14T04:15:59;91629.16;;;15.73;100.00
12195;BME280;27023;42.680;23.132;2022-08-14T04:18:26;91619.28;;;15.77;100.00
12195;BME280;27023;42.680;23.132;2022-08-14T04:20:54;91623.41;;;15.85;100.00
12195;BME280;27023;42.680;23.132;2022-08-14T04:23:23;91628.88;;;16.19;100.00
12195;BME280;27023;42.680;23.132;2022-08-14T04:25:50;91624.22;;;16.34;100.00
12195;BME280;27023;42.680;23.132;2022-08-14T04:28:19;91622.63;;;16.44;100.00
12195;BME280;27023;42.680;23.132;2022-08-14T04:30:47;91630.44;;;16.13;100.00
12195;BME280;27023;42.680;23.132;2022-08-14T04:33:14;91636.63;;;15.96;100.00
12195;BME280;27023;42.680;23.132;2022-08-14T04:35:41;91640.44;;;15.95;100.00
12195;BME280;27023;42.680;23.132;2022-08-14T04:38:08;91647.66;;;15.91;100.00
12195;BME280;27023;42.680;23.132;2022-08-14T04:40:53;91648.81;;;15.86;100.00
12195;BME280;27023;42.680;23.132;2022-08-14T04:43:37;91647.66;;;15.91;100.00
12195;BME280;27023;42.680;23.132;2022-08-14T04:46:08;91650.97;;;16.09;100.00
12195;BME280;27023;42.680;23.132;2022-08-14T04:48:36;91641.88;;;16.07;100.00
12195;BME280;27023;42.680;23.132;2022-08-14T04:51:04;91648.63;;;16.18;100.00
12195;BME280;27023;42.680;23.132;2022-08-14T04:53:32;91651.75;;;16.06;100.00
12195;BME280;27023;42.680;23.132;2022-08-14T04:56:00;91647.16;;;16.14;100.00
12195;BME280;27023;42.680;23.132;2022-08-14T04:58:29;91641.16;;;15.99;100.00
12195;BME280;27023;42.680;23.132;2022-08-14T05:00:57;91642.53;;;16.21;100.00
12195;BME280;27023;42.680;23.132;2022-08-14T05:03:27;91646.22;;;16.35;100.00
12195;BME280;27023;42.680;23.132;2022-08-14T05:05:56;91640.09;;;16.45;100.00
12195;BME280;27023;42.680;23.132;2022-08-14T05:08:24;91640.81;;;16.52;100.00
12195;BME280;27023;42.680;23.132;2022-08-14T05:10:52;91635.94;;;16.44;100.00
12195;BME280;27023;42.680;23.132;2022-08-14T05:13:20;91634.13;;;16.30;100.00
12195;BME280;27023;42.680;23.132;2022-08-14T05:15:48;91636.34;;;16.39;100.00
12195;BME280;27023;42.680;23.132;2022-08-14T05:18:18;91636.38;;;16.35;100.00
12195;BME280;27023;42.680;23.132;2022-08-14T05:23:30;91626.59;;;16.18;100.00
12195;BME280;27023;42.680;23.132;2022-08-14T05:25:59;91635.69;;;16.24;100.00
12195;BME280;27023;42.680;23.132;2022-08-14T05:28:29;91637.13;;;16.36;100.00
12195;BME280;27023;42.680;23.132;2022-08-14T05:30:57;91642.06;;;16.34;100.00
12195;BME280;27023;42.680;23.132;2022-08-14T05:33:26;91637.38;;;16.52;100.00
12195;BME280;27023;42.680;23.132;2022-08-14T05:35:56;91631.22;;;16.62;100.00
12195;BME280;27023;42.680;23.132;2022-08-14T05:38:26;91633.97;;;16.51;100.00
12195;BME280;27023;42.680;23.132;2022-08-14T05:40:54;91634.50;;;16.29;100.00
12195;BME280;27023;42.680;23.132;2022-08-14T05:43:21;91634.34;;;16.53;100.00
12195;BME280;27023;42.680;23.132;2022-08-14T05:45:48;91628.94;;;16.64;100.00
12195;BME280;27023;42.680;23.132;2022-08-14T05:48:15;91630.28;;;16.35;100.00
12195;BME280;27023;42.680;23.132;2022-08-14T05:50:42;91634.22;;;16.16;100.00
12195;BME280;27023;42.680;23.132;2022-08-14T05:53:10;91629.00;;;16.02;100.00
12195;BME280;27023;42.680;23.132;2022-08-14T05:55:37;91631.69;;;15.98;100.00
12195;BME280;27023;42.680;23.132;2022-08-14T05:58:05;91632.03;;;16.00;100.00
12195;BME280;27023;42.680;23.132;2022-08-14T06:00:33;91638.16;;;15.94;100.00
12195;BME280;27023;42.680;23.132;2022-08-14T06:03:01;91631.25;;;16.07;100.00
12195;BME280;27023;42.680;23.132;2022-08-14T06:05:29;91636.66;;;15.93;100.00
12195;BME280;27023;42.680;23.132;2022-08-14T06:07:57;91640.06;;;15.93;100.00
12195;BME280;27023;42.680;23.132;2022-08-14T06:10:27;91649.03;;;16.17;100.00
12195;BME280;27023;42.680;23.132;2022-08-14T06:12:55;91653.13;;;16.29;100.00
12195;BME280;27023;42.680;23.132;2022-08-14T06:15:22;91669.41;;;16.38;100.00
12195;BME280;27023;42.680;23.132;2022-08-14T06:17:51;91670.16;;;16.42;100.00
12195;BME280;27023;42.680;23.132;2022-08-14T06:20:20;91656.78;;;16.49;100.00
12195;BME280;27023;42.680;23.132;2022-08-14T06:22:47;91648.50;;;16.40;100.00
12195;BME280;27023;42.680;23.132;2022-08-14T06:25:14;91644.25;;;16.49;100.00
12195;BME280;27023;42.680;23.132;2022-08-14T06:27:44;91643.50;;;16.49;100.00
12195;BME280;27023;42.680;23.132;2022-08-14T06:30:15;91636.44;;;16.76;100.00
12195;BME280;27023;42.680;23.132;2022-08-14T06:32:42;91638.03;;;16.70;100.00
12195;BME280;27023;42.680;23.132;2022-08-14T06:35:12;91644.00;;;16.81;100.00
12195;BME280;27023;42.680;23.132;2022-08-14T06:37:43;91640.41;;;16.99;100.00
12195;BME280;27023;42.680;23.132;2022-08-14T06:40:12;91645.19;;;17.18;100.00
12195;BME280;27023;42.680;23.132;2022-08-14T06:42:39;91651.53;;;17.31;100.00
12195;BME280;27023;42.680;23.132;2022-08-14T06:45:09;91656.13;;;17.27;100.00
12195;BME280;27023;42.680;23.132;2022-08-14T06:47:37;91659.25;;;17.19;100.00
12195;BME280;27023;42.680;23.132;2022-08-14T06:50:06;91658.34;;;17.32;100.00
12195;BME280;27023;42.680;23.132;2022-08-14T06:52:34;91655.25;;;17.37;100.00
12195;BME280;27023;42.680;23.132;2022-08-14T06:55:02;91663.97;;;17.41;100.00
12195;BME280;27023;42.680;23.132;2022-08-14T06:57:34;91657.19;;;16.96;100.00
12195;BME280;27023;42.680;23.132;2022-08-14T07:00:05;91656.38;;;16.99;100.00
12195;BME280;27023;42.680;23.132;2022-08-14T07:02:34;91660.44;;;16.73;100.00
12195;BME280;27023;42.680;23.132;2022-08-14T07:05:18;91654.28;;;16.79;100.00
12195;BME280;27023;42.680;23.132;2022-08-14T07:08:02;91666.38;;;16.88;100.00
12195;BME280;27023;42.680;23.132;2022-08-14T07:10:30;91672.59;;;16.74;100.00
12195;BME280;27023;42.680;23.132;2022-08-14T07:12:57;91669.41;;;16.90;100.00
12195;BME280;27023;42.680;23.132;2022-08-14T07:15:24;91675.34;;;17.04;100.00
12195;BME280;27023;42.680;23.132;2022-08-14T07:17:52;91670.03;;;17.04;100.00
12195;BME280;27023;42.680;23.132;2022-08-14T07:20:19;91672.38;;;16.99;100.00
12195;BME280;27023;42.680;23.132;2022-08-14T07:22:46;91680.41;;;16.92;100.00
12195;BME280;27023;42.680;23.132;2022-08-14T07:25:13;91674.13;;;16.71;100.00
12195;BME280;27023;42.680;23.132;2022-08-14T07:27:40;91675.78;;;16.51;100.00
12195;BME280;27023;42.680;23.132;2022-08-14T07:30:08;91677.97;;;16.67;100.00
12195;BME280;27023;42.680;23.132;2022-08-14T07:32:35;91670.91;;;16.91;100.00
12195;BME280;27023;42.680;23.132;2022-08-14T07:35:04;91665.97;;;16.41;100.00
12195;BME280;27023;42.680;23.132;2022-08-14T07:37:30;91674.94;;;16.61;100.00
12195;BME280;27023;42.680;23.132;2022-08-14T07:39:57;91673.38;;;16.71;100.00
12195;BME280;27023;42.680;23.132;2022-08-14T07:42:33;91676.09;;;16.60;100.00
12195;BME280;27023;42.680;23.132;2022-08-14T07:45:00;91673.75;;;16.69;100.00
12195;BME280;27023;42.680;23.132;2022-08-14T07:47:27;91676.38;;;16.76;100.00
12195;BME280;27023;42.680;23.132;2022-08-14T07:49:59;91666.59;;;17.04;100.00
12195;BME280;27023;42.680;23.132;2022-08-14T07:52:29;91677.78;;;17.29;100.00
12195;BME280;27023;42.680;23.132;2022-08-14T07:54:59;91677.19;;;17.48;100.00
12195;BME280;27023;42.680;23.132;2022-08-14T07:57:26;91678.41;;;17.78;100.00
12195;BME280;27023;42.680;23.132;2022-08-14T07:59:53;91654.78;;;17.80;100.00
12195;BME280;27023;42.680;23.132;2022-08-14T08:02:20;91669.69;;;17.74;100.00
12195;BME280;27023;42.680;23.132;2022-08-14T08:04:48;91668.50;;;17.44;100.00
12195;BME280;27023;42.680;23.132;2022-08-14T08:07:26;91674.94;;;17.85;100.00
12195;BME280;27023;42.680;23.132;2022-08-14T08:09:55;91672.94;;;17.92;100.00
12195;BME280;27023;42.680;23.132;2022-08-14T08:12:23;91678.38;;;18.12;100.00
12195;BME280;27023;42.680;23.132;2022-08-14T08:14:50;91678.78;;;18.37;100.00
12195;BME280;27023;42.680;23.132;2022-08-14T08:17:17;91677.66;;;17.77;100.00
12195;BME280;27023;42.680;23.132;2022-08-14T08:19:45;91690.06;;;18.22;100.00
12195;BME280;27023;42.680;23.132;2022-08-14T08:22:13;91682.97;;;18.12;100.00
12195;BME280;27023;42.680;23.132;2022-08-14T08:24:40;91677.97;;;18.14;100.00
12195;BME280;27023;42.680;23.132;2022-08-14T08:27:15;91678.16;;;17.99;100.00
12195;BME280;27023;42.680;23.132;2022-08-14T08:29:42;91675.41;;;18.33;100.00
12195;BME280;27023;42.680;23.132;2022-08-14T08:32:09;91669.44;;;18.26;100.00
12195;BME280;27023;42.680;23.132;2022-08-14T08:34:43;91676.63;;;18.02;100.00
12195;BME280;27023;42.680;23.132;2022-08-14T08:37:11;91679.25;;;18.32;100.00
12195;BME280;27023;42.680;23.132;2022-08-14T08:39:44;91670.72;;;18.41;100.00
12195;BME280;27023;42.680;23.132;2022-08-14T08:42:11;91675.06;;;18.58;100.00
12195;BME280;27023;42.680;23.132;2022-08-14T08:44:39;91684.53;;;18.90;100.00
12195;BME280;27023;42.680;23.132;2022-08-14T08:47:06;91677.72;;;18.85;100.00
12195;BME280;27023;42.680;23.132;2022-08-14T08:49:37;91679.84;;;19.17;100.00
12195;BME280;27023;42.680;23.132;2022-08-14T08:52:07;91667.88;;;19.49;100.00
12195;BME280;27023;42.680;23.132;2022-08-14T08:54:34;91674.94;;;19.59;100.00
12195;BME280;27023;42.680;23.132;2022-08-14T08:57:00;91669.44;;;19.23;100.00
12195;BME280;27023;42.680;23.132;2022-08-14T08:59:29;91668.75;;;19.19;100.00
12195;BME280;27023;42.680;23.132;2022-08-14T09:01:59;91670.44;;;19.32;100.00
12195;BME280;27023;42.680;23.132;2022-08-14T09:04:28;91672.41;;;19.72;100.00
12195;BME280;27023;42.680;23.132;2022-08-14T09:06:55;91671.94;;;19.77;100.00
12195;BME280;27023;42.680;23.132;2022-08-14T09:09:24;91666.03;;;19.85;100.00
12195;BME280;27023;42.680;23.132;2022-08-14T09:11:52;91672.88;;;19.86;100.00
12195;BME280;27023;42.680;23.132;2022-08-14T09:14:19;91663.50;;;20.34;100.00
12195;BME280;27023;42.680;23.132;2022-08-14T09:16:47;91655.97;;;19.53;100.00
12195;BME280;27023;42.680;23.132;2022-08-14T09:19:16;91655.13;;;19.96;100.00
12195;BME280;27023;42.680;23.132;2022-08-14T09:21:43;91662.97;;;20.23;100.00
12195;BME280;27023;42.680;23.132;2022-08-14T09:24:11;91650.41;;;20.56;100.00
12195;BME280;27023;42.680;23.132;2022-08-14T09:26:38;91649.50;;;20.62;100.00
12195;BME280;27023;42.680;23.132;2022-08-14T09:29:06;91643.97;;;20.53;100.00
12195;BME280;27023;42.680;23.132;2022-08-14T09:31:36;91643.81;;;20.60;100.00
12195;BME280;27023;42.680;23.132;2022-08-14T09:34:13;91638.53;;;20.73;100.00
12195;BME280;27023;42.680;23.132;2022-08-14T09:37:07;91644.06;;;20.82;100.00
12195;BME280;27023;42.680;23.132;2022-08-14T09:39:51;91639.63;;;20.59;100.00
12195;BME280;27023;42.680;23.132;2022-08-14T09:42:39;91648.09;;;20.02;100.00
12195;BME280;27023;42.680;23.132;2022-08-14T09:45:13;91649.03;;;19.76;100.00
12195;BME280;27023;42.680;23.132;2022-08-14T09:47:43;91650.28;;;19.71;100.00
12195;BME280;27023;42.680;23.132;2022-08-14T09:50:19;91640.03;;;19.86;100.00
12195;BME280;27023;42.680;23.132;2022-08-14T09:52:56;91642.06;;;20.18;100.00
12195;BME280;27023;42.680;23.132;2022-08-14T09:55:25;91647.16;;;20.48;100.00
12195;BME280;27023;42.680;23.132;2022-08-14T09:57:52;91649.84;;;20.12;100.00
12195;BME280;27023;42.680;23.132;2022-08-14T10:00:30;91646.81;;;20.46;100.00
12195;BME280;27023;42.680;23.132;2022-08-14T10:03:01;91644.63;;;20.41;100.00
12195;BME280;27023;42.680;23.132;2022-08-14T10:05:30;91652.03;;;20.34;100.00
12195;BME280;27023;42.680;23.132;2022-08-14T10:08:00;91647.44;;;20.34;100.00
12195;BME280;27023;42.680;23.132;2022-08-14T10:10:29;91647.56;;;20.11;100.00
12195;BME280;27023;42.680;23.132;2022-08-14T10:12:59;91641.31;;;19.97;100.00
12195;BME280;27023;42.680;23.132;2022-08-14T10:15:44;91643.66;;;19.95;100.00
12195;BME280;27023;42.680;23.132;2022-08-14T10:18:14;91646.59;;;20.01;100.00
12195;BME280;27023;42.680;23.132;2022-08-14T10:20:43;91643.84;;;20.05;100.00
12195;BME280;27023;42.680;23.132;2022-08-14T10:23:14;91644.59;;;20.05;100.00
12195;BME280;27023;42.680;23.132;2022-08-14T10:25:44;91652.59;;;20.09;100.00
12195;BME280;27023;42.680;23.132;2022-08-14T10:28:11;91648.25;;;19.95;100.00
12195;BME280;27023;42.680;23.132;2022-08-14T10:30:43;91651.72;;;19.76;100.00
12195;BME280;27023;42.680;23.132;2022-08-14T10:33:24;91649.19;;;19.68;100.00
12195;BME280;27023;42.680;23.132;2022-08-14T10:35:51;91634.91;;;19.75;100.00
12195;BME280;27023;42.680;23.132;2022-08-14T10:38:27;91649.31;;;19.81;100.00
12195;BME280;27023;42.680;23.132;2022-08-14T10:40:54;91644.41;;;19.96;100.00
12195;BME280;27023;42.680;23.132;2022-08-14T10:43:23;91640.38;;;20.08;100.00
12195;BME280;27023;42.680;23.132;2022-08-14T10:45:56;91636.81;;;19.94;100.00
12195;BME280;27023;42.680;23.132;2022-08-14T10:48:24;91637.34;;;20.06;100.00
12195;BME280;27023;42.680;23.132;2022-08-14T10:50:51;91629.88;;;19.97;100.00
12195;BME280;27023;42.680;23.132;2022-08-14T10:53:32;91633.53;;;20.23;100.00
12195;BME280;27023;42.680;23.132;2022-08-14T10:56:07;91627.66;;;20.64;100.00
12195;BME280;27023;42.680;23.132;2022-08-14T10:58:34;91623.63;;;20.72;100.00
12195;BME280;27023;42.680;23.132;2022-08-14T11:01:02;91621.53;;;22.88;100.00
12195;BME280;27023;42.680;23.132;2022-08-14T11:03:39;91611.69;;;23.76;100.00
12195;BME280;27023;42.680;23.132;2022-08-14T11:08:48;91594.81;;;22.59;100.00
12195;BME280;27023;42.680;23.132;2022-08-14T11:11:17;91599.22;;;22.40;100.00
12195;BME280;27023;42.680;23.132;2022-08-14T11:13:44;91589.78;;;22.48;100.00
12195;BME280;27023;42.680;23.132;2022-08-14T11:16:22;91575.47;;;22.26;100.00
12195;BME280;27023;42.680;23.132;2022-08-14T11:18:51;91584.28;;;22.14;100.00
12195;BME280;27023;42.680;23.132;2022-08-14T11:21:20;91583.72;;;21.94;100.00
12195;BME280;27023;42.680;23.132;2022-08-14T11:23:49;91571.13;;;21.65;100.00
12195;BME280;27023;42.680;23.132;2022-08-14T11:26:20;91581.09;;;21.36;100.00
12195;BME280;27023;42.680;23.132;2022-08-14T11:28:49;91579.53;;;21.51;100.00
12195;BME280;27023;42.680;23.132;2022-08-14T11:31:19;91587.41;;;21.58;100.00
12195;BME280;27023;42.680;23.132;2022-08-14T11:33:51;91588.63;;;21.41;100.00
12195;BME280;27023;42.680;23.132;2022-08-14T11:36:22;91586.69;;;21.70;100.00
12195;BME280;27023;42.680;23.132;2022-08-14T11:38:54;91587.44;;;21.42;100.00
12195;BME280;27023;42.680;23.132;2022-08-14T11:41:23;91588.19;;;21.71;100.00
12195;BME280;27023;42.680;23.132;2022-08-14T11:43:52;91585.63;;;21.80;100.00
12195;BME280;27023;42.680;23.132;2022-08-14T11:46:19;91589.81;;;21.94;100.00
12195;BME280;27023;42.680;23.132;2022-08-14T11:48:49;91585.22;;;21.95;100.00
12195;BME280;27023;42.680;23.132;2022-08-14T11:51:19;91591.47;;;22.04;100.00
12195;BME280;27023;42.680;23.132;2022-08-14T11:53:52;91589.97;;;22.03;100.00
12195;BME280;27023;42.680;23.132;2022-08-14T11:56:22;91587.19;;;22.07;100.00
12195;BME280;27023;42.680;23.132;2022-08-14T11:58:51;91588.88;;;22.01;100.00
12195;BME280;27023;42.680;23.132;2022-08-14T12:01:24;91583.72;;;21.94;100.00
12195;BME280;27023;42.680;23.132;2022-08-14T12:04:06;91581.06;;;21.23;100.00
12195;BME280;27023;42.680;23.132;2022-08-14T12:06:44;91582.81;;;21.30;100.00
12195;BME280;27023;42.680;23.132;2022-08-14T12:09:13;91583.59;;;21.43;100.00
12195;BME280;27023;42.680;23.132;2022-08-14T12:11:42;91578.09;;;21.05;100.00
12195;BME280;27023;42.680;23.132;2022-08-14T12:14:16;91578.53;;;20.38;100.00
12195;BME280;27023;42.680;23.132;2022-08-14T12:16:42;91575.84;;;20.22;100.00
12195;BME280;27023;42.680;23.132;2022-08-14T12:19:10;91571.00;;;20.17;100.00
12195;BME280;27023;42.680;23.132;2022-08-14T12:21:37;91581.91;;;20.42;100.00
12195;BME280;27023;42.680;23.132;2022-08-14T12:24:09;91572.19;;;20.32;100.00
12195;BME280;27023;42.680;23.132;2022-08-14T12:26:36;91566.50;;;20.30;100.00
12195;BME280;27023;42.680;23.132;2022-08-14T12:29:12;91563.81;;;20.14;100.00
12195;BME280;27023;42.680;23.132;2022-08-14T12:31:41;91559.06;;;20.54;100.00
12195;BME280;27023;42.680;23.132;2022-08-14T12:34:12;91561.41;;;20.52;100.00
12195;BME280;27023;42.680;23.132;2022-08-14T12:36:49;91562.81;;;20.73;100.00
12195;BME280;27023;42.680;23.132;2022-08-14T12:39:26;91555.69;;;21.28;100.00
12195;BME280;27023;42.680;23.132;2022-08-14T12:41:54;91558.41;;;21.53;100.00
12195;BME280;27023;42.680;23.132;2022-08-14T12:44:33;91553.25;;;22.13;100.00
12195;BME280;27023;42.680;23.132;2022-08-14T12:47:06;91548.31;;;22.24;100.00
12195;BME280;27023;42.680;23.132;2022-08-14T12:49:36;91558.81;;;22.57;97.88
12195;BME280;27023;42.680;23.132;2022-08-14T12:52:03;91551.97;;;22.05;100.00
12195;BME280;27023;42.680;23.132;2022-08-14T12:54:32;91544.22;;;22.58;100.00
12195;BME280;27023;42.680;23.132;2022-08-14T12:57:04;91543.69;;;22.97;100.00